Time;durP1;ratioP1;P1;durP2;ratioP2;P2;SDS_P1;SDS_P2;PMS_P1;PMS_P2;Temp;Humidity;BMP_temperature;BMP_pressure;BME280_temperature;BME280_humidity;BME280_pressure;Samples;Min_cycle;Max_cycle;Signal;HPM_P1;HPM_P2
2022/01/31 15:46:47;;;;;;;;;;;0.20;99.90;;;;;;5107742;27;19993;-92
2022/01/31 15:49:12;;;;;;;;;;;0.20;99.90;;;;;;5108399;27;19976;-96
2022/01/31 15:51:38;;;;;;;;;;;0.20;99.90;;;;;;5094088;28;20011;-92
2022/01/31 15:54:03;;;;;;;;;;;0.30;99.90;;;;;;5082567;28;19960;-92
2022/01/31 15:56:29;;;;;;;;;;;0.40;99.90;;;;;;5086632;28;19920;-92
2022/01/31 15:58:54;;;;;;;;;;;0.50;99.90;;;;;;5083537;28;19919;-93
2022/01/31 16:01:20;;;;;;;;;;;0.60;99.90;;;;;;5119451;27;19913;-91
2022/01/31 16:03:46;;;;;;;;;;;0.60;99.90;;;;;;5113673;28;19916;-93
2022/01/31 16:06:12;;;;;;;;;;;0.70;99.90;;;;;;5124439;28;19987;-95
2022/01/31 16:08:38;;;;;;;;;;;0.80;99.90;;;;;;5091762;28;19991;-93
2022/01/31 16:11:04;;;;;;;;;;;0.80;99.90;;;;;;5090647;28;19913;-92
2022/01/31 16:13:29;;;;;;;;;;;0.90;99.90;;;;;;5093413;28;19918;-92
2022/01/31 16:15:56;;;;;;;;;;;0.90;99.90;;;;;;5104580;28;19912;-90
2022/01/31 16:18:22;;;;;;;;;;;1.00;99.90;;;;;;5100470;28;19912;-91
2022/01/31 16:20:47;;;;;;;;;;;1.00;99.90;;;;;;5090473;28;19924;-92
2022/01/31 16:23:13;;;;;;;;;;;1.00;99.90;;;;;;5102636;28;19913;-96
2022/01/31 16:25:42;;;;;;;;;;;1.10;99.90;;;;;;5096214;28;20356;-94
2022/01/31 16:28:14;;;;;;;;;;;1.10;99.90;;;;;;5086074;28;19940;-96
2022/01/31 16:30:39;;;;;;;;;;;1.10;99.90;;;;;;5106944;28;20419;-94
2022/01/31 16:33:05;;;;;;;;;;;1.10;99.90;;;;;;5090705;28;19936;-95
2022/01/31 16:35:30;;;;;;;;;;;1.10;99.90;;;;;;5094687;28;19920;-94
2022/01/31 16:37:56;;;;;;;;;;;1.10;99.90;;;;;;5093622;28;19943;-95
2022/01/31 16:40:21;;;;;;;;;;;1.20;99.90;;;;;;5091526;28;19908;-95
2022/01/31 16:42:47;;;;;;;;;;;1.20;99.90;;;;;;5084077;28;20379;-96
2022/01/31 16:45:15;;;;;;;;;;;1.20;99.90;;;;;;5099225;28;19924;-96
2022/01/31 16:47:43;;;;;;;;;;;1.20;99.90;;;;;;5093174;28;19952;-92
2022/01/31 16:50:09;;;;;;;;;;;1.20;99.90;;;;;;5087967;28;19908;-94
2022/01/31 16:52:36;;;;;;;;;;;1.20;99.90;;;;;;5081879;28;19912;-92
2022/01/31 16:55:03;;;;;;;;;;;1.20;99.90;;;;;;5094364;28;19921;-93
2022/01/31 16:57:28;;;;;;;;;;;1.20;99.90;;;;;;5086079;28;19908;-94
2022/01/31 16:59:54;;;;;;;;;;;1.20;99.90;;;;;;5077577;28;19909;-94
2022/01/31 17:02:23;;;;;;;;;;;1.20;99.90;;;;;;5078996;28;19909;-92
2022/01/31 17:04:49;;;;;;;;;;;1.20;99.90;;;;;;5114001;28;19919;-95
2022/01/31 17:07:14;;;;;;;;;;;1.20;99.90;;;;;;5087899;28;19912;-95
2022/01/31 17:09:40;;;;;;;;;;;1.20;99.90;;;;;;5084349;28;19931;-92
2022/01/31 17:12:06;;;;;;;;;;;1.20;99.90;;;;;;5070042;28;19913;-93
2022/01/31 17:20:46;;;;;;;;;;;1.20;99.90;;;;;;5056073;28;19957;-95
2022/01/31 17:23:11;;;;;;;;;;;1.20;99.90;;;;;;5086026;28;19917;-93
2022/01/31 17:25:37;;;;;;;;;;;1.10;99.90;;;;;;5070298;28;20011;-95
2022/01/31 17:28:02;;;;;;;;;;;1.10;99.90;;;;;;5076728;28;19912;-94
2022/01/31 17:30:28;;;;;;;;;;;1.10;99.90;;;;;;5074489;28;20474;-93
2022/01/31 17:32:54;;;;;;;;;;;1.10;99.90;;;;;;5073866;28;20276;-92
2022/01/31 17:35:20;;;;;;;;;;;1.10;99.90;;;;;;5087517;28;20272;-93
2022/01/31 17:37:47;;;;;;;;;;;1.10;99.90;;;;;;5074910;28;19919;-93
2022/01/31 17:40:15;;;;;;;;;;;1.10;99.90;;;;;;5079142;28;19912;-91
2022/01/31 17:42:46;;;;;;;;;;;1.10;99.90;;;;;;5075666;28;19913;-91
2022/01/31 17:45:12;;;;;;;;;;;1.10;99.90;;;;;;5074887;28;19924;-91
2022/01/31 17:47:38;;;;;;;;;;;1.10;99.90;;;;;;5075131;28;19962;-91
2022/01/31 17:50:03;;;;;;;;;;;1.10;99.90;;;;;;5073867;28;19908;-93
2022/01/31 17:52:29;;;;;;;;;;;1.00;99.90;;;;;;5067720;28;20415;-94
2022/01/31 17:54:55;;;;;;;;;;;1.00;99.90;;;;;;5078575;28;19917;-93
2022/01/31 17:57:20;;;;;;;;;;;1.00;99.90;;;;;;5088886;28;19909;-91
2022/01/31 17:59:46;;;;;;;;;;;1.00;99.90;;;;;;5074364;28;19938;-94
2022/01/31 18:02:12;;;;;;;;;;;1.00;99.90;;;;;;5077176;28;19962;-90
2022/01/31 18:04:38;;;;;;;;;;;1.00;99.90;;;;;;5071317;28;19912;-94
2022/01/31 18:07:03;;;;;;;;;;;0.90;99.90;;;;;;5072230;28;19909;-91
2022/01/31 18:09:29;;;;;;;;;;;0.90;99.90;;;;;;5085696;28;19925;-93
2022/01/31 18:11:55;;;;;;;;;;;0.90;99.90;;;;;;5073194;28;19916;-91
2022/01/31 18:14:20;;;;;;;;;;;0.90;99.90;;;;;;5070358;28;20019;-93
2022/01/31 18:16:46;;;;;;;;;;;0.90;99.90;;;;;;5075331;28;19908;-93
2022/01/31 18:19:12;;;;;;;;;;;0.80;99.90;;;;;;5110118;27;19912;-91
2022/01/31 18:21:38;;;;;;;;;;;0.90;99.90;;;;;;5073173;28;20292;-94
2022/01/31 18:24:03;;;;;;;;;;;0.80;99.90;;;;;;5088048;28;20384;-90
2022/01/31 18:26:29;;;;;;;;;;;0.80;99.90;;;;;;5071680;28;20320;-91
2022/01/31 18:28:55;;;;;;;;;;;0.80;99.90;;;;;;5078252;28;19908;-95
2022/01/31 18:31:22;;;;;;;;;;;0.80;99.90;;;;;;5080596;28;19934;-93
2022/01/31 18:33:50;;;;;;;;;;;0.80;99.90;;;;;;5077096;28;19912;-93
2022/01/31 18:36:16;;;;;;;;;;;0.80;99.90;;;;;;5074836;28;19909;-94
2022/01/31 18:38:48;;;;;;;;;;;0.80;99.90;;;;;;5086274;28;19935;-94
2022/01/31 18:41:18;;;;;;;;;;;0.80;99.90;;;;;;5088844;28;19944;-93
2022/01/31 18:43:52;;;;;;;;;;;0.80;99.90;;;;;;5077703;28;19934;-92
2022/01/31 18:46:18;;;;;;;;;;;0.80;99.90;;;;;;5090845;28;19944;-91
2022/01/31 18:48:44;;;;;;;;;;;0.80;99.90;;;;;;5075351;28;19995;-91
2022/01/31 18:51:12;;;;;;;;;;;0.80;99.90;;;;;;5073085;28;19912;-93
2022/01/31 18:53:37;;;;;;;;;;;0.80;99.90;;;;;;5072135;28;19967;-92
2022/01/31 18:56:03;;;;;;;;;;;0.80;99.90;;;;;;5075045;28;19952;-93
2022/01/31 18:58:31;;;;;;;;;;;0.80;99.90;;;;;;5071754;28;19963;-92
2022/01/31 19:00:56;;;;;;;;;;;0.80;99.90;;;;;;5089790;28;20292;-91
2022/01/31 19:03:25;;;;;;;;;;;0.80;99.90;;;;;;5077997;28;19920;-90
2022/01/31 19:05:50;;;;;;;;;;;0.80;99.90;;;;;;5069751;28;19924;-91
2022/01/31 19:08:21;;;;;;;;;;;0.80;99.90;;;;;;5079957;28;19913;-92
2022/01/31 19:10:58;;;;;;;;;;;0.80;99.90;;;;;;5071640;28;19918;-92
2022/01/31 19:15:50;;;;;;;;;;;0.80;99.90;;;;;;5064555;28;19944;-91
2022/01/31 19:18:17;;;;;;;;;;;0.80;99.90;;;;;;5069923;28;19918;-91
2022/01/31 19:20:44;;;;;;;;;;;0.80;99.90;;;;;;5073918;28;19920;-94
2022/01/31 19:23:10;;;;;;;;;;;0.80;99.90;;;;;;5073650;28;19913;-95
2022/01/31 19:25:36;;;;;;;;;;;0.80;99.90;;;;;;5084408;28;19961;-96
2022/01/31 19:28:02;;;;;;;;;;;0.70;99.90;;;;;;5080469;28;20276;-95
2022/01/31 19:30:35;;;;;;;;;;;0.70;99.90;;;;;;5081362;28;19931;-95
2022/01/31 19:33:02;;;;;;;;;;;0.70;99.90;;;;;;5070610;28;19970;-94
2022/01/31 19:35:28;;;;;;;;;;;0.70;99.90;;;;;;5073360;28;19916;-92
2022/01/31 19:38:23;;;;;;;;;;;0.70;99.90;;;;;;5068678;28;19920;-93
2022/01/31 22:04:39;;;;;;;;;;;-0.40;99.90;;;;;;5116512;27;19912;-93
2022/01/31 22:07:05;;;;;;;;;;;-0.40;99.90;;;;;;5097328;28;19934;-90
2022/01/31 22:09:31;;;;;;;;;;;-0.40;99.90;;;;;;5091739;28;19951;-92
2022/01/31 22:11:59;;;;;;;;;;;-0.30;99.90;;;;;;5076242;28;19919;-93
2022/01/31 22:14:26;;;;;;;;;;;-0.20;99.90;;;;;;5090135;28;19927;-92
